Terminal Aerodrome Forecast
Issued by NWS Blacksburg, VA

Home | Current Version | Previous Version | Text Only | Print | Product List | Glossary On
Versions: 1 2 3 4 5 6 7 8 9 10 11 12 13 14 15 16 17 18 19 20 21 22 23 24 25 26 27 28
000
FTUS41 KRNK 261140
TAFDAN
TAF
KDAN 261140Z 2612/2712 03007KT P6SM -SHRA OVC007
     FM261500 02007KT P6SM -SHRA SCT008 BKN015 OVC023
     FM261900 02007KT P6SM BKN025
     FM262200 36006KT P6SM BKN040
     FM270500 32005KT P6SM SCT050=

USA.gov is the U.S. government's official web portal to all federal, state and local government web resources and services.